sensor_id;sensor_type;location;lat;lon;timestamp;pressure;altitude;pressure_sealevel;temperature;humidity
6349;BME280;3207;42.648;23.406;2023-11-18T01:06:52;100402.31;;;6.06;nan
6349;BME280;3207;42.648;23.406;2023-11-18T07:16:08;100678.22;;;25.16;nan
6349;BME280;3207;42.648;23.406;2023-11-18T07:18:35;100680.09;;;25.79;nan
6349;BME280;3207;42.648;23.406;2023-11-18T07:21:04;100689.97;;;26.07;nan
6349;BME280;3207;42.648;23.406;2023-11-18T07:23:31;100691.78;;;26.62;nan
6349;BME280;3207;42.648;23.406;2023-11-18T07:25:58;100705.81;;;27.05;nan
6349;BME280;3207;42.648;23.406;2023-11-18T07:28:25;100705.06;;;27.38;nan
6349;BME280;3207;42.648;23.406;2023-11-18T07:30:52;100696.06;;;27.65;nan
6349;BME280;3207;42.648;23.406;2023-11-18T07:33:20;100695.00;;;28.05;nan
6349;BME280;3207;42.648;23.406;2023-11-18T07:35:48;100703.81;;;28.52;nan
6349;BME280;3207;42.648;23.406;2023-11-18T07:38:17;100696.69;;;28.91;nan
6349;BME280;3207;42.648;23.406;2023-11-18T07:40:45;100709.09;;;29.30;nan
6349;BME280;3207;42.648;23.406;2023-11-18T07:43:13;100710.09;;;29.67;nan
6349;BME280;3207;42.648;23.406;2023-11-18T07:45:40;100711.34;;;29.96;nan
6349;BME280;3207;42.648;23.406;2023-11-18T07:48:08;100709.75;;;30.31;nan
6349;BME280;3207;42.648;23.406;2023-11-18T07:50:37;100715.59;;;30.71;nan
6349;BME280;3207;42.648;23.406;2023-11-18T07:53:06;100714.41;;;30.97;nan
6349;BME280;3207;42.648;23.406;2023-11-18T07:55:35;100716.22;;;31.03;nan
6349;BME280;3207;42.648;23.406;2023-11-18T07:58:04;100716.34;;;31.38;nan
6349;BME280;3207;42.648;23.406;2023-11-18T08:00:36;100712.66;;;31.62;nan
6349;BME280;3207;42.648;23.406;2023-11-18T08:03:04;100720.56;;;31.64;nan
6349;BME280;3207;42.648;23.406;2023-11-18T08:05:33;100714.53;;;31.62;nan
6349;BME280;3207;42.648;23.406;2023-11-18T08:07:59;100714.97;;;31.77;nan
6349;BME280;3207;42.648;23.406;2023-11-18T08:10:26;100715.72;;;32.19;nan
6349;BME280;3207;42.648;23.406;2023-11-18T08:12:55;100726.59;;;31.78;nan
6349;BME280;3207;42.648;23.406;2023-11-18T08:15:22;100724.06;;;32.18;nan
6349;BME280;3207;42.648;23.406;2023-11-18T08:17:50;100724.84;;;32.53;nan
6349;BME280;3207;42.648;23.406;2023-11-18T08:20:17;100727.44;;;32.71;nan
6349;BME280;3207;42.648;23.406;2023-11-18T08:22:44;100725.31;;;32.74;nan
6349;BME280;3207;42.648;23.406;2023-11-18T08:25:11;100745.72;;;32.18;nan
6349;BME280;3207;42.648;23.406;2023-11-18T08:27:40;100728.63;;;32.52;nan
6349;BME280;3207;42.648;23.406;2023-11-18T08:30:09;100729.91;;;32.73;nan
6349;BME280;3207;42.648;23.406;2023-11-18T08:32:37;100726.94;;;32.75;nan
6349;BME280;3207;42.648;23.406;2023-11-18T08:35:05;100708.41;;;32.20;nan
6349;BME280;3207;42.648;23.406;2023-11-18T08:37:33;100724.97;;;32.35;nan
6349;BME280;3207;42.648;23.406;2023-11-18T08:40:01;100725.75;;;32.82;nan
6349;BME280;3207;42.648;23.406;2023-11-18T08:42:28;100729.69;;;33.03;nan
6349;BME280;3207;42.648;23.406;2023-11-18T08:44:57;100720.03;;;33.52;nan
6349;BME280;3207;42.648;23.406;2023-11-18T08:47:26;100716.22;;;33.82;nan
6349;BME280;3207;42.648;23.406;2023-11-18T08:49:53;100730.44;;;32.87;nan
6349;BME280;3207;42.648;23.406;2023-11-18T08:52:20;100723.25;;;32.92;nan
6349;BME280;3207;42.648;23.406;2023-11-18T08:54:47;100724.34;;;33.08;nan
6349;BME280;3207;42.648;23.406;2023-11-18T08:57:28;100743.25;;;33.31;nan
6349;BME280;3207;42.648;23.406;2023-11-18T09:00:14;100721.41;;;33.38;nan
6349;BME280;3207;42.648;23.406;2023-11-18T09:03:04;100748.31;;;33.73;nan
6349;BME280;3207;42.648;23.406;2023-11-18T09:05:32;100724.59;;;34.30;nan
6349;BME280;3207;42.648;23.406;2023-11-18T09:08:01;100720.38;;;34.61;nan
6349;BME280;3207;42.648;23.406;2023-11-18T09:10:31;100738.63;;;35.09;nan
6349;BME280;3207;42.648;23.406;2023-11-18T09:12:59;100722.94;;;35.16;nan
6349;BME280;3207;42.648;23.406;2023-11-18T09:15:26;100729.88;;;35.29;nan
6349;BME280;3207;42.648;23.406;2023-11-18T09:17:56;100734.66;;;34.73;nan
6349;BME280;3207;42.648;23.406;2023-11-18T09:20:24;100730.09;;;35.01;nan
6349;BME280;3207;42.648;23.406;2023-11-18T09:22:52;100730.47;;;35.90;nan
6349;BME280;3207;42.648;23.406;2023-11-18T09:25:21;100742.63;;;36.66;nan
6349;BME280;3207;42.648;23.406;2023-11-18T09:27:48;100735.22;;;36.52;nan
6349;BME280;3207;42.648;23.406;2023-11-18T09:30:15;100738.41;;;36.86;nan
6349;BME280;3207;42.648;23.406;2023-11-18T09:32:42;100738.16;;;36.97;nan
6349;BME280;3207;42.648;23.406;2023-11-18T09:35:13;100739.59;;;36.58;nan
6349;BME280;3207;42.648;23.406;2023-11-18T09:37:41;100734.25;;;36.26;nan
6349;BME280;3207;42.648;23.406;2023-11-18T09:40:13;100743.03;;;36.85;nan
6349;BME280;3207;42.648;23.406;2023-11-18T09:42:40;100744.78;;;37.17;nan
6349;BME280;3207;42.648;23.406;2023-11-18T09:45:09;100745.59;;;36.60;nan
6349;BME280;3207;42.648;23.406;2023-11-18T09:47:42;100751.38;;;37.46;nan
6349;BME280;3207;42.648;23.406;2023-11-18T09:50:16;100745.38;;;37.85;nan
6349;BME280;3207;42.648;23.406;2023-11-18T09:52:49;100748.94;;;38.16;nan
6349;BME280;3207;42.648;23.406;2023-11-18T09:55:25;100756.81;;;38.37;nan
6349;BME280;3207;42.648;23.406;2023-11-18T09:58:03;100735.94;;;38.72;nan
6349;BME280;3207;42.648;23.406;2023-11-18T10:00:34;100737.97;;;39.05;nan
6349;BME280;3207;42.648;23.406;2023-11-18T10:03:08;100729.00;;;38.95;nan
6349;BME280;3207;42.648;23.406;2023-11-18T10:05:40;100731.28;;;38.72;nan
6349;BME280;3207;42.648;23.406;2023-11-18T10:08:09;100727.88;;;38.26;nan
6349;BME280;3207;42.648;23.406;2023-11-18T10:10:36;100734.03;;;38.67;nan
6349;BME280;3207;42.648;23.406;2023-11-18T10:13:03;100734.38;;;38.40;nan
6349;BME280;3207;42.648;23.406;2023-11-18T10:15:34;100728.91;;;38.40;nan
6349;BME280;3207;42.648;23.406;2023-11-18T10:18:02;100726.44;;;38.49;nan
6349;BME280;3207;42.648;23.406;2023-11-18T10:20:43;100732.28;;;38.07;nan
6349;BME280;3207;42.648;23.406;2023-11-18T10:23:14;100723.97;;;39.12;nan
6349;BME280;3207;42.648;23.406;2023-11-18T10:25:45;100730.38;;;39.41;nan
6349;BME280;3207;42.648;23.406;2023-11-18T10:28:24;100751.47;;;39.36;nan
6349;BME280;3207;42.648;23.406;2023-11-18T10:30:53;100760.44;;;39.46;nan
6349;BME280;3207;42.648;23.406;2023-11-18T10:33:24;100730.72;;;39.98;nan
6349;BME280;3207;42.648;23.406;2023-11-18T10:35:56;100743.97;;;37.21;nan
6349;BME280;3207;42.648;23.406;2023-11-18T10:38:27;100750.84;;;36.24;nan
6349;BME280;3207;42.648;23.406;2023-11-18T10:40:56;100725.09;;;36.42;nan
6349;BME280;3207;42.648;23.406;2023-11-18T10:43:24;100720.28;;;36.12;nan
6349;BME280;3207;42.648;23.406;2023-11-18T10:46:05;100722.94;;;35.70;nan
6349;BME280;3207;42.648;23.406;2023-11-18T10:48:43;100724.72;;;36.76;nan
6349;BME280;3207;42.648;23.406;2023-11-18T10:51:13;100719.16;;;37.53;nan
6349;BME280;3207;42.648;23.406;2023-11-18T10:53:43;100727.88;;;38.31;nan
6349;BME280;3207;42.648;23.406;2023-11-18T10:56:19;100724.34;;;38.95;nan
6349;BME280;3207;42.648;23.406;2023-11-18T10:58:51;100729.63;;;39.26;nan
6349;BME280;3207;42.648;23.406;2023-11-18T11:01:27;100725.03;;;39.60;nan
6349;BME280;3207;42.648;23.406;2023-11-18T11:03:55;100724.09;;;40.04;nan
6349;BME280;3207;42.648;23.406;2023-11-18T11:06:23;100732.78;;;39.48;nan
6349;BME280;3207;42.648;23.406;2023-11-18T11:08:52;100738.72;;;38.46;nan
6349;BME280;3207;42.648;23.406;2023-11-18T11:11:22;100741.31;;;38.92;nan
6349;BME280;3207;42.648;23.406;2023-11-18T11:13:55;100702.06;;;39.56;nan
6349;BME280;3207;42.648;23.406;2023-11-18T11:16:24;100699.13;;;40.05;nan
6349;BME280;3207;42.648;23.406;2023-11-18T11:19:02;100691.81;;;39.33;nan
6349;BME280;3207;42.648;23.406;2023-11-18T11:21:37;100694.28;;;39.68;nan
6349;BME280;3207;42.648;23.406;2023-11-18T11:24:20;100691.56;;;39.29;nan
6349;BME280;3207;42.648;23.406;2023-11-18T11:27:07;100693.50;;;39.29;nan
6349;BME280;3207;42.648;23.406;2023-11-18T11:29:50;100673.81;;;39.22;nan
6349;BME280;3207;42.648;23.406;2023-11-18T11:32:26;100676.00;;;38.11;nan
6349;BME280;3207;42.648;23.406;2023-11-18T11:34:58;100667.63;;;36.49;nan
6349;BME280;3207;42.648;23.406;2023-11-18T11:37:33;100668.22;;;36.09;nan
6349;BME280;3207;42.648;23.406;2023-11-18T11:40:03;100660.16;;;35.82;nan
6349;BME280;3207;42.648;23.406;2023-11-18T11:42:35;100659.22;;;32.75;nan
6349;BME280;3207;42.648;23.406;2023-11-18T11:45:02;100659.03;;;32.93;nan
6349;BME280;3207;42.648;23.406;2023-11-18T11:47:29;100658.38;;;31.64;nan
6349;BME280;3207;42.648;23.406;2023-11-18T11:50:06;100651.09;;;31.64;nan
6349;BME280;3207;42.648;23.406;2023-11-18T11:52:44;100662.50;;;31.78;nan
6349;BME280;3207;42.648;23.406;2023-11-18T11:55:22;100651.84;;;31.42;nan
6349;BME280;3207;42.648;23.406;2023-11-18T11:57:51;100653.31;;;31.14;nan
6349;BME280;3207;42.648;23.406;2023-11-18T12:00:19;100656.09;;;30.05;nan
6349;BME280;3207;42.648;23.406;2023-11-18T12:02:52;100652.13;;;29.82;nan
6349;BME280;3207;42.648;23.406;2023-11-18T12:05:20;100652.69;;;29.03;nan
6349;BME280;3207;42.648;23.406;2023-11-18T12:10:21;100640.59;;;27.24;nan
6349;BME280;3207;42.648;23.406;2023-11-18T12:12:48;100631.91;;;26.20;nan
6349;BME280;3207;42.648;23.406;2023-11-18T12:15:48;100628.91;;;25.46;nan
6349;BME280;3207;42.648;23.406;2023-11-18T12:18:20;100627.91;;;24.54;nan
6349;BME280;3207;42.648;23.406;2023-11-18T12:20:47;100624.31;;;23.51;nan
6349;BME280;3207;42.648;23.406;2023-11-18T12:23:19;100608.00;;;23.00;nan
6349;BME280;3207;42.648;23.406;2023-11-18T12:25:50;100610.06;;;21.96;nan
6349;BME280;3207;42.648;23.406;2023-11-18T12:28:25;100609.16;;;21.56;nan
6349;BME280;3207;42.648;23.406;2023-11-18T12:30:53;100621.38;;;20.92;nan
6349;BME280;3207;42.648;23.406;2023-11-18T12:33:59;100620.47;;;20.59;nan
6349;BME280;3207;42.648;23.406;2023-11-18T12:40:05;100622.81;;;19.51;nan
6349;BME280;3207;42.648;23.406;2023-11-18T12:50:53;100632.72;;;19.31;nan
6349;BME280;3207;42.648;23.406;2023-11-18T12:55:50;100673.00;;;18.99;nan
6349;BME280;3207;42.648;23.406;2023-11-18T13:25:22;100688.06;;;17.68;nan
6349;BME280;3207;42.648;23.406;2023-11-18T14:07:26;100636.88;;;15.59;nan
6349;BME280;3207;42.648;23.406;2023-11-18T14:44:19;100624.03;;;14.70;nan
6349;BME280;3207;42.648;23.406;2023-11-18T14:54:08;100623.91;;;14.38;nan
6349;BME280;3207;42.648;23.406;2023-11-18T15:01:30;100649.69;;;14.00;nan
6349;BME280;3207;42.648;23.406;2023-11-18T17:38:53;100858.13;;;9.37;nan
6349;BME280;3207;42.648;23.406;2023-11-18T18:18:10;100862.75;;;8.49;nan
6349;BME280;3207;42.648;23.406;2023-11-18T19:21:56;100879.69;;;7.50;nan
6349;BME280;3207;42.648;23.406;2023-11-18T20:35:40;100887.28;;;7.35;nan
6349;BME280;3207;42.648;23.406;2023-11-18T20:52:50;100887.56;;;7.29;nan
6349;BME280;3207;42.648;23.406;2023-11-18T22:53:04;100848.94;;;6.00;nan
